Wanderer — XX — position and weather

sailwx.info

Track history (hours):
 
Tides and Currents Weather Stations Pressure Air Temp Water Temp Dewpoint Dewpoint Depression Visibility Wind Speed Wind Dir Waves Ship Positions

Wanderer

Last reported at 2015-Aug-26 15:20 UTC. Time now 2015-Aug-27 21:31 UTC.
Position N 39°34' W 074°12'.

Length 19 m.

Type: Pleasure craft. MMSI: 338047657.

Date/timePositionNaut miles runAvg speedWind from/ knotsBaromVisibWave heightAir tempDewpointWater temp
2015-Aug-26 15:20N 39°34' W 074°12'12 4.1
2015-Aug-26 12:22N 39°46' W 074°07'0 0.0
2015-Aug-26 11:28N 39°46' W 074°07'0 0.0
2015-Aug-26 10:28N 39°46' W 074°07'0 0.0
2015-Aug-26 09:28N 39°46' W 074°07'0 0.0
2015-Aug-26 08:28N 39°46' W 074°07'0 0.0
2015-Aug-26 07:28N 39°46' W 074°07'0 0.0
2015-Aug-26 06:22N 39°46' W 074°07'0 0.0
2015-Aug-26 05:28N 39°46' W 074°07'0 0.0
2015-Aug-26 04:22N 39°46' W 074°07'0 0.0
2015-Aug-26 02:22N 39°46' W 074°07'0 0.0
2015-Aug-26 01:28N 39°46' W 074°07'0 0.0
2015-Aug-26 00:28N 39°46' W 074°07'0 0.0
2015-Aug-25 23:16N 39°46' W 074°07'0 0.0
2015-Aug-25 22:22N 39°46' W 074°07'0 0.0
2015-Aug-25 21:28N 39°46' W 074°07'0 0.0
2015-Aug-25 20:28N 39°46' W 074°07'0 0.0
2015-Aug-25 19:22N 39°46' W 074°07'0 0.0
2015-Aug-25 18:28N 39°46' W 074°07'0 0.4
2015-Aug-25 17:33N 39°45' W 074°07'5317.7
2015-Aug-25 14:33N 40°38' W 074°03'9 8.9
2015-Aug-25 13:31N 40°47' W 073°59'0 0.0
2015-Aug-25 12:31N 40°47' W 073°59'0 0.0
2015-Aug-25 11:31N 40°47' W 073°59'0 0.0
2015-Aug-25 10:31N 40°47' W 073°59'0 0.0
2015-Aug-25 09:31N 40°47' W 073°59'0 0.0
2015-Aug-25 08:31N 40°47' W 073°59'0 0.0
2015-Aug-25 07:31N 40°47' W 073°59'0 0.0
2015-Aug-25 06:31N 40°47' W 073°59'0 0.0
2015-Aug-25 05:31N 40°47' W 073°59'0 0.0
2015-Aug-25 04:31N 40°47' W 073°59'0 0.0
2015-Aug-25 03:31N 40°47' W 073°59'0 0.0
2015-Aug-25 02:31N 40°47' W 073°59'0 0.0
2015-Aug-25 01:31N 40°47' W 073°59'0 0.0
2015-Aug-25 00:31N 40°47' W 073°59'0 0.0
2015-Aug-24 23:31N 40°47' W 073°59'0 0.0
2015-Aug-24 22:28N 40°47' W 073°59'0 0.0
2015-Aug-24 21:22N 40°47' W 073°59'0 0.0
2015-Aug-24 20:31N 40°47' W 073°59'0 0.0
2015-Aug-24 19:31N 40°47' W 073°59'0 0.0
2015-Aug-24 18:31N 40°47' W 073°59'0 0.0
2015-Aug-24 17:31N 40°47' W 073°59'4 3.8
2015-Aug-24 16:33N 40°44' W 073°58'31 1.3
2015-Aug-23 17:17N 41°01' W 073°24'2220.6
2015-Aug-23 16:12N 41°08' W 072°56'1320.2
2015-Aug-23 15:33N 41°12' W 072°39'1515.1
2015-Aug-23 14:33N 41°18' W 072°21'3 3.3
2015-Aug-23 13:31N 41°21' W 072°23'0 0.0
2015-Aug-23 12:31N 41°21' W 072°23'0 0.0
2015-Aug-23 11:31N 41°21' W 072°23'0 0.0
2015-Aug-23 10:31N 41°21' W 072°23'0 0.0
2015-Aug-23 09:28N 41°21' W 072°23'0 0.0
2015-Aug-23 08:31N 41°21' W 072°23'0 0.0
2015-Aug-23 07:31N 41°21' W 072°23'0 0.0
2015-Aug-23 06:28N 41°21' W 072°23'0 0.0
2015-Aug-23 05:31N 41°21' W 072°23'0 0.0
2015-Aug-23 04:28N 41°21' W 072°23'0 0.0
2015-Aug-23 03:31N 41°21' W 072°23'0 0.0
2015-Aug-23 02:31N 41°21' W 072°23'0 0.0
2015-Aug-23 01:31N 41°21' W 072°23'0 0.0
2015-Aug-23 00:31N 41°21' W 072°23'0 0.0
2015-Aug-22 23:31N 41°21' W 072°23'0 0.0
2015-Aug-22 22:25N 41°21' W 072°23'0 0.0
2015-Aug-22 21:31N 41°21' W 072°23'0 0.0
2015-Aug-22 20:31N 41°21' W 072°23'0 0.0
2015-Aug-22 19:28N 41°21' W 072°23'0 0.0
2015-Aug-22 18:31N 41°21' W 072°23'0 0.0
2015-Aug-22 17:31N 41°21' W 072°23'0 0.0
2015-Aug-22 16:31N 41°21' W 072°23'0 0.0
2015-Aug-22 15:31N 41°21' W 072°23'0 0.0
2015-Aug-22 14:31N 41°21' W 072°23'0 0.0
2015-Aug-22 13:31N 41°21' W 072°23'0 0.0
2015-Aug-22 12:31N 41°21' W 072°23'0 0.0
2015-Aug-22 11:31N 41°21' W 072°23'0 0.0
2015-Aug-22 10:31N 41°21' W 072°23'0 0.0
2015-Aug-22 09:31N 41°21' W 072°23'0 0.0
2015-Aug-22 08:31N 41°21' W 072°23'0 0.0
2015-Aug-22 07:31N 41°21' W 072°23'0 0.0
2015-Aug-22 06:31N 41°21' W 072°23'0 0.0
2015-Aug-22 05:28N 41°21' W 072°23'0 0.0
2015-Aug-22 04:31N 41°21' W 072°23'0 0.0
2015-Aug-22 03:31N 41°21' W 072°23'0 0.0
2015-Aug-22 02:31N 41°21' W 072°23'0 0.0
2015-Aug-22 01:31N 41°21' W 072°23'0 0.0
2015-Aug-22 00:31N 41°21' W 072°23'0 0.0
2015-Aug-21 23:28N 41°21' W 072°23'0 0.0
2015-Aug-21 22:31N 41°21' W 072°23'0 0.0
2015-Aug-21 21:31N 41°21' W 072°23'0 0.0
2015-Aug-21 20:31N 41°21' W 072°23'0 0.0
2015-Aug-21 19:25N 41°21' W 072°23'0 0.0
2015-Aug-21 18:31N 41°21' W 072°23'0 0.2
2015-Aug-21 17:32N 41°21' W 072°23'0 0.0
2015-Aug-21 16:33N 41°21' W 072°23'6 6.1
2015-Aug-21 15:33N 41°15' W 072°20'9 8.9
2015-Aug-21 14:33N 41°06' W 072°19'16 0.6
2015-Aug-20 13:26N 40°53' W 072°30'125 3.7
2015-Aug-19 03:05N 42°03' W 070°11'0 0.0
2015-Aug-19 02:32N 42°03' W 070°11'0 0.0
2015-Aug-19 01:10N 42°03' W 070°11'0 0.0
2015-Aug-19 00:26N 42°03' W 070°11'0 0.0
2015-Aug-18 23:26N 42°03' W 070°11'39 5.6
2015-Aug-18 16:33N 41°34' W 070°45'1919.4
2015-Aug-18 15:33N 41°25' W 071°08'9 3.1
2015-Aug-18 12:33N 41°29' W 071°19'0 0.0
2015-Aug-17 22:27N 41°29' W 071°19'0 0.0
2015-Aug-17 21:30N 41°29' W 071°19'0 0.0
2015-Aug-17 17:24N 41°29' W 071°19'0 0.0
2015-Aug-17 16:33N 41°29' W 071°19'0 0.0
2015-Aug-17 13:19N 41°29' W 071°19'0 0.0
2015-Aug-17 12:31N 41°29' W 071°19'0 0.0
2015-Aug-17 11:33N 41°29' W 071°19'0 0.0
2015-Aug-17 10:33N 41°29' W 071°19'0 0.0
2015-Aug-17 09:33N 41°29' W 071°19'0 0.0
2015-Aug-17 08:33N 41°29' W 071°19'0 0.0
2015-Aug-17 07:34N 41°29' W 071°19'0 0.0
2015-Aug-17 06:34N 41°29' W 071°19'0 0.0
2015-Aug-17 05:34N 41°29' W 071°19'0 0.0
2015-Aug-17 04:31N 41°29' W 071°19'0 0.0
2015-Aug-17 03:31N 41°29' W 071°19'0 0.0
2015-Aug-17 02:31N 41°29' W 071°19'0 0.0
2015-Aug-17 01:22N 41°29' W 071°19'0 0.0
2015-Aug-17 00:31N 41°29' W 071°19'0 0.0
2015-Aug-16 23:28N 41°29' W 071°19'0 0.0
2015-Aug-16 20:25N 41°29' W 071°19'5411.0
2015-Aug-16 15:33N 41°14' W 072°28'  
Track history (hours):
 
Tides and Currents Weather Stations Pressure Air Temp Water Temp Dewpoint Dewpoint Depression Visibility Wind Speed Wind Dir Waves Ship Positions

Wanderer

Last reported at 2015-Aug-26 15:20 UTC. Time now 2015-Aug-27 21:31 UTC.
Position N 39°34' W 074°12'.

Length 19 m.

Type: Pleasure craft. MMSI: 338047657.

Date/timePositionNaut miles runAvg speedWind from/ knotsBaromVisibWave heightAir tempDewpointWater temp
2015-Aug-26 15:20N 39°34' W 074°12'12 4.1
2015-Aug-26 12:22N 39°46' W 074°07'0 0.0
2015-Aug-26 11:28N 39°46' W 074°07'0 0.0
2015-Aug-26 10:28N 39°46' W 074°07'0 0.0
2015-Aug-26 09:28N 39°46' W 074°07'0 0.0
2015-Aug-26 08:28N 39°46' W 074°07'0 0.0
2015-Aug-26 07:28N 39°46' W 074°07'0 0.0
2015-Aug-26 06:22N 39°46' W 074°07'0 0.0
2015-Aug-26 05:28N 39°46' W 074°07'0 0.0
2015-Aug-26 04:22N 39°46' W 074°07'0 0.0
2015-Aug-26 02:22N 39°46' W 074°07'0 0.0
2015-Aug-26 01:28N 39°46' W 074°07'0 0.0
2015-Aug-26 00:28N 39°46' W 074°07'0 0.0
2015-Aug-25 23:16N 39°46' W 074°07'0 0.0
2015-Aug-25 22:22N 39°46' W 074°07'0 0.0
2015-Aug-25 21:28N 39°46' W 074°07'0 0.0
2015-Aug-25 20:28N 39°46' W 074°07'0 0.0
2015-Aug-25 19:22N 39°46' W 074°07'0 0.0
2015-Aug-25 18:28N 39°46' W 074°07'0 0.4
2015-Aug-25 17:33N 39°45' W 074°07'5317.7
2015-Aug-25 14:33N 40°38' W 074°03'9 8.9
2015-Aug-25 13:31N 40°47' W 073°59'0 0.0
2015-Aug-25 12:31N 40°47' W 073°59'0 0.0
2015-Aug-25 11:31N 40°47' W 073°59'0 0.0
2015-Aug-25 10:31N 40°47' W 073°59'0 0.0
2015-Aug-25 09:31N 40°47' W 073°59'0 0.0
2015-Aug-25 08:31N 40°47' W 073°59'0 0.0
2015-Aug-25 07:31N 40°47' W 073°59'0 0.0
2015-Aug-25 06:31N 40°47' W 073°59'0 0.0
2015-Aug-25 05:31N 40°47' W 073°59'0 0.0
2015-Aug-25 04:31N 40°47' W 073°59'0 0.0
2015-Aug-25 03:31N 40°47' W 073°59'0 0.0
2015-Aug-25 02:31N 40°47' W 073°59'0 0.0
2015-Aug-25 01:31N 40°47' W 073°59'0 0.0
2015-Aug-25 00:31N 40°47' W 073°59'0 0.0
2015-Aug-24 23:31N 40°47' W 073°59'0 0.0
2015-Aug-24 22:28N 40°47' W 073°59'0 0.0
2015-Aug-24 21:22N 40°47' W 073°59'0 0.0
2015-Aug-24 20:31N 40°47' W 073°59'0 0.0
2015-Aug-24 19:31N 40°47' W 073°59'0 0.0
2015-Aug-24 18:31N 40°47' W 073°59'0 0.0
2015-Aug-24 17:31N 40°47' W 073°59'4 3.8
2015-Aug-24 16:33N 40°44' W 073°58'31 1.3
2015-Aug-23 17:17N 41°01' W 073°24'2220.6
2015-Aug-23 16:12N 41°08' W 072°56'1320.2
2015-Aug-23 15:33N 41°12' W 072°39'1515.1
2015-Aug-23 14:33N 41°18' W 072°21'3 3.3
2015-Aug-23 13:31N 41°21' W 072°23'0 0.0
2015-Aug-23 12:31N 41°21' W 072°23'0 0.0
2015-Aug-23 11:31N 41°21' W 072°23'0 0.0
2015-Aug-23 10:31N 41°21' W 072°23'0 0.0
2015-Aug-23 09:28N 41°21' W 072°23'0 0.0
2015-Aug-23 08:31N 41°21' W 072°23'0 0.0
2015-Aug-23 07:31N 41°21' W 072°23'0 0.0
2015-Aug-23 06:28N 41°21' W 072°23'0 0.0
2015-Aug-23 05:31N 41°21' W 072°23'0 0.0
2015-Aug-23 04:28N 41°21' W 072°23'0 0.0
2015-Aug-23 03:31N 41°21' W 072°23'0 0.0
2015-Aug-23 02:31N 41°21' W 072°23'0 0.0
2015-Aug-23 01:31N 41°21' W 072°23'0 0.0
2015-Aug-23 00:31N 41°21' W 072°23'0 0.0
2015-Aug-22 23:31N 41°21' W 072°23'0 0.0
2015-Aug-22 22:25N 41°21' W 072°23'0 0.0
2015-Aug-22 21:31N 41°21' W 072°23'0 0.0
2015-Aug-22 20:31N 41°21' W 072°23'0 0.0
2015-Aug-22 19:28N 41°21' W 072°23'0 0.0
2015-Aug-22 18:31N 41°21' W 072°23'0 0.0
2015-Aug-22 17:31N 41°21' W 072°23'0 0.0
2015-Aug-22 16:31N 41°21' W 072°23'0 0.0
2015-Aug-22 15:31N 41°21' W 072°23'0 0.0
2015-Aug-22 14:31N 41°21' W 072°23'0 0.0
2015-Aug-22 13:31N 41°21' W 072°23'0 0.0
2015-Aug-22 12:31N 41°21' W 072°23'0 0.0
2015-Aug-22 11:31N 41°21' W 072°23'0 0.0
2015-Aug-22 10:31N 41°21' W 072°23'0 0.0
2015-Aug-22 09:31N 41°21' W 072°23'0 0.0
2015-Aug-22 08:31N 41°21' W 072°23'0 0.0
2015-Aug-22 07:31N 41°21' W 072°23'0 0.0
2015-Aug-22 06:31N 41°21' W 072°23'0 0.0
2015-Aug-22 05:28N 41°21' W 072°23'0 0.0
2015-Aug-22 04:31N 41°21' W 072°23'0 0.0
2015-Aug-22 03:31N 41°21' W 072°23'0 0.0
2015-Aug-22 02:31N 41°21' W 072°23'0 0.0
2015-Aug-22 01:31N 41°21' W 072°23'0 0.0
2015-Aug-22 00:31N 41°21' W 072°23'0 0.0
2015-Aug-21 23:28N 41°21' W 072°23'0 0.0
2015-Aug-21 22:31N 41°21' W 072°23'0 0.0
2015-Aug-21 21:31N 41°21' W 072°23'0 0.0
2015-Aug-21 20:31N 41°21' W 072°23'0 0.0
2015-Aug-21 19:25N 41°21' W 072°23'0 0.0
2015-Aug-21 18:31N 41°21' W 072°23'0 0.2
2015-Aug-21 17:32N 41°21' W 072°23'0 0.0
2015-Aug-21 16:33N 41°21' W 072°23'6 6.1
2015-Aug-21 15:33N 41°15' W 072°20'9 8.9
2015-Aug-21 14:33N 41°06' W 072°19'16 0.6
2015-Aug-20 13:26N 40°53' W 072°30'125 3.7
2015-Aug-19 03:05N 42°03' W 070°11'0 0.0
2015-Aug-19 02:32N 42°03' W 070°11'0 0.0
2015-Aug-19 01:10N 42°03' W 070°11'0 0.0
2015-Aug-19 00:26N 42°03' W 070°11'0 0.0
2015-Aug-18 23:26N 42°03' W 070°11'39 5.6
2015-Aug-18 16:33N 41°34' W 070°45'1919.4
2015-Aug-18 15:33N 41°25' W 071°08'9 3.1
2015-Aug-18 12:33N 41°29' W 071°19'0 0.0
2015-Aug-17 22:27N 41°29' W 071°19'0 0.0
2015-Aug-17 21:30N 41°29' W 071°19'0 0.0
2015-Aug-17 17:24N 41°29' W 071°19'0 0.0
2015-Aug-17 16:33N 41°29' W 071°19'0 0.0
2015-Aug-17 13:19N 41°29' W 071°19'0 0.0
2015-Aug-17 12:31N 41°29' W 071°19'0 0.0
2015-Aug-17 11:33N 41°29' W 071°19'0 0.0
2015-Aug-17 10:33N 41°29' W 071°19'0 0.0
2015-Aug-17 09:33N 41°29' W 071°19'0 0.0
2015-Aug-17 08:33N 41°29' W 071°19'0 0.0
2015-Aug-17 07:34N 41°29' W 071°19'0 0.0
2015-Aug-17 06:34N 41°29' W 071°19'0 0.0
2015-Aug-17 05:34N 41°29' W 071°19'0 0.0
2015-Aug-17 04:31N 41°29' W 071°19'0 0.0
2015-Aug-17 03:31N 41°29' W 071°19'0 0.0
2015-Aug-17 02:31N 41°29' W 071°19'0 0.0
2015-Aug-17 01:22N 41°29' W 071°19'0 0.0
2015-Aug-17 00:31N 41°29' W 071°19'0 0.0
2015-Aug-16 23:28N 41°29' W 071°19'0 0.0
2015-Aug-16 20:25N 41°29' W 071°19'5411.0
2015-Aug-16 15:33N 41°14' W 072°28'  

Dump ship's entire track history